Time;durP1;ratioP1;P1;durP2;ratioP2;P2;SDS_P1;SDS_P2;PMS_P1;PMS_P2;Temp;Humidity;BMP_temperature;BMP_pressure;BME280_temperature;BME280_humidity;BME280_pressure;Samples;Min_cycle;Max_cycle;Signal;HPM_P1;HPM_P2
2021/10/24 00:00:27;;;;;;;10.70;3.17;;;;;;;8.00;51.81;101057.48;1667283;84;22074;-55
2021/10/24 00:02:53;;;;;;;6.90;3.30;;;;;;;8.00;51.93;101053.55;1698672;83;21130;-55
2021/10/24 00:05:20;;;;;;;6.50;3.17;;;;;;;8.00;51.96;101060.11;1692986;82;21489;-55
2021/10/24 00:07:46;;;;;;;5.75;2.83;;;;;;;8.02;52.05;101056.53;1694846;82;21094;-56
2021/10/24 00:10:14;;;;;;;7.65;3.50;;;;;;;8.03;52.07;101057.75;1694594;82;21567;-56
2021/10/24 00:12:42;;;;;;;7.55;3.22;;;;;;;8.02;52.26;101066.57;1662895;83;22103;-55
2021/10/24 00:15:09;;;;;;;9.68;3.02;;;;;;;8.02;52.21;101056.53;1693611;82;21017;-56
2021/10/24 00:17:35;;;;;;;6.05;2.70;;;;;;;8.02;52.29;101065.70;1691716;83;21070;-55
2021/10/24 00:20:03;;;;;;;6.75;2.92;;;;;;;8.00;52.33;101060.11;1698155;82;21046;-57
2021/10/24 00:22:30;;;;;;;7.55;3.60;;;;;;;8.03;52.37;101062.16;1692426;82;21131;-55
2021/10/24 00:24:56;;;;;;;8.73;3.15;;;;;;;8.03;52.55;101061.69;1698245;82;23361;-55
2021/10/24 00:27:23;;;;;;;7.50;3.95;;;;;;;8.04;52.62;101058.62;1695169;82;21043;-55
2021/10/24 00:29:49;;;;;;;9.70;3.37;;;;;;;8.05;52.63;101061.13;1696174;82;21078;-55
2021/10/24 00:32:16;;;;;;;7.87;3.17;;;;;;;8.08;52.76;101062.73;1698348;82;21163;-55
2021/10/24 00:34:43;;;;;;;9.00;3.45;;;;;;;8.11;52.66;101065.18;1697169;82;21031;-56
2021/10/24 00:37:09;;;;;;;11.93;3.20;;;;;;;8.13;52.68;101063.30;1690678;82;22387;-56
2021/10/24 00:39:36;;;;;;;8.63;2.95;;;;;;;8.14;52.77;101058.45;1699110;82;21071;-56
2021/10/24 00:42:03;;;;;;;7.67;3.22;;;;;;;8.13;52.87;101057.59;1685607;82;21107;-56
2021/10/24 00:44:32;;;;;;;6.90;3.22;;;;;;;8.13;52.97;101057.59;1695759;83;21078;-56
2021/10/24 00:47:00;;;;;;;6.35;3.30;;;;;;;8.11;53.17;101063.39;1697380;82;21743;-56
2021/10/24 00:49:27;;;;;;;6.28;2.87;;;;;;;8.09;53.28;101053.95;1691251;82;22084;-56
2021/10/24 00:51:54;;;;;;;7.05;3.00;;;;;;;8.08;53.50;101058.33;1663220;84;21095;-56
2021/10/24 00:54:26;;;;;;;7.08;3.05;;;;;;;8.08;53.62;101060.95;1643244;85;21055;-55
2021/10/24 00:56:56;;;;;;;9.03;3.65;;;;;;;8.09;53.66;101069.67;1642401;85;21095;-56
2021/10/24 00:59:23;;;;;;;6.87;3.37;;;;;;;8.09;53.65;101067.89;1700421;82;21108;-56
2021/10/24 01:01:50;;;;;;;8.38;2.95;;;;;;;8.07;53.79;101071.52;1701806;82;21159;-56
2021/10/24 01:04:18;;;;;;;7.90;3.45;;;;;;;8.07;54.05;101071.08;1710509;82;21035;-57
2021/10/24 01:06:46;;;;;;;7.83;3.37;;;;;;;8.06;54.05;101076.41;1700231;82;21042;-56
2021/10/24 01:09:14;;;;;;;9.88;3.25;;;;;;;8.03;54.15;101077.41;1680695;83;21069;-54
2021/10/24 01:11:41;;;;;;;10.05;3.20;;;;;;;8.00;54.26;101078.89;1705386;82;21094;-55
2021/10/24 01:14:10;;;;;;;6.55;3.00;;;;;;;8.03;54.25;101081.81;1705903;82;21172;-57
2021/10/24 01:16:40;;;;;;;8.08;3.72;;;;;;;8.01;54.58;101093.70;1685793;83;21050;-55
2021/10/24 01:19:08;;;;;;;7.67;3.27;;;;;;;7.99;54.54;101084.61;1707093;82;21586;-55
2021/10/24 01:21:37;;;;;;;7.28;3.25;;;;;;;8.00;54.94;101081.52;1707600;82;21286;-57
2021/10/24 01:24:04;;;;;;;8.25;3.92;;;;;;;7.99;55.08;101081.16;1702017;82;21420;-55
2021/10/24 01:26:34;;;;;;;7.70;3.47;;;;;;;7.98;55.09;101088.19;1677671;82;21109;-55
2021/10/24 01:29:01;;;;;;;8.13;3.37;;;;;;;7.97;55.27;101081.25;1705118;82;22304;-55
2021/10/24 01:31:28;;;;;;;6.22;3.42;;;;;;;7.97;55.60;101093.52;1710210;82;21138;-56
2021/10/24 01:33:55;;;;;;;11.00;3.58;;;;;;;7.96;55.57;101091.81;1681167;82;21066;-55
2021/10/24 01:36:23;;;;;;;10.05;3.58;;;;;;;7.94;55.87;101087.97;1702474;82;21062;-56
2021/10/24 01:38:50;;;;;;;8.18;2.87;;;;;;;7.96;55.88;101093.12;1711159;82;23189;-55
2021/10/24 01:41:18;;;;;;;8.73;3.10;;;;;;;7.95;55.97;101093.59;1712505;82;21077;-56
2021/10/24 01:43:46;;;;;;;7.75;3.20;;;;;;;7.95;55.94;101091.42;1708202;82;21054;-56
2021/10/24 01:46:14;;;;;;;9.58;3.50;;;;;;;7.95;55.93;101086.18;1703932;82;21511;-55
2021/10/24 01:48:42;;;;;;;9.85;4.00;;;;;;;7.95;56.04;101086.18;1705218;82;21777;-57
2021/10/24 01:51:10;;;;;;;7.47;3.25;;;;;;;7.94;56.05;101097.62;1706976;82;21137;-55
2021/10/24 01:53:41;;;;;;;9.15;3.35;;;;;;;7.93;56.21;101098.53;1726583;80;21520;-59
2021/10/24 01:56:07;;;;;;;9.90;3.45;;;;;;;7.94;56.21;101098.92;1702770;82;21101;-56
2021/10/24 01:58:36;;;;;;;9.90;3.58;;;;;;;7.93;56.46;101101.16;1689172;83;21599;-56
2021/10/24 02:01:03;;;;;;;6.50;3.08;;;;;;;7.94;56.58;101104.17;1737950;80;21100;-55
2021/10/24 02:03:36;;;;;;;8.23;3.60;;;;;;;7.96;56.56;101108.37;1671740;83;21968;-56
2021/10/24 02:06:21;;;;;;;8.38;3.85;;;;;;;7.97;56.60;101115.31;1698045;82;28449;-58
2021/10/24 02:08:48;;;;;;;9.03;3.70;;;;;;;7.97;56.70;101114.00;1703536;82;21098;-55
2021/10/24 02:11:15;;;;;;;9.85;3.27;;;;;;;7.98;56.58;101117.45;1702154;82;21105;-55
2021/10/24 02:13:41;;;;;;;7.20;3.17;;;;;;;7.99;56.52;101116.53;1733979;80;21106;-56
2021/10/24 02:16:08;;;;;;;8.30;3.33;;;;;;;8.00;56.65;101125.63;1707036;82;21873;-56
2021/10/24 02:18:36;;;;;;;8.58;3.80;;;;;;;8.02;56.70;101122.92;1717509;80;21556;-56
2021/10/24 02:21:03;;;;;;;9.50;3.50;;;;;;;8.05;56.69;101126.65;1705313;82;21051;-56
2021/10/24 02:23:30;;;;;;;7.75;3.30;;;;;;;8.07;56.71;101126.56;1702329;82;21117;-57
2021/10/24 02:25:58;;;;;;;7.85;3.47;;;;;;;8.08;56.71;101131.72;1737875;80;21073;-56
2021/10/24 02:28:24;;;;;;;6.25;3.55;;;;;;;8.09;56.68;101133.42;1740765;81;21521;-56
2021/10/24 02:30:51;;;;;;;8.38;3.75;;;;;;;8.08;56.68;101138.27;1738749;80;21481;-56
2021/10/24 02:33:39;;;;;;;7.53;3.10;;;;;;;8.08;56.77;101139.58;1664553;84;21460;-56
2021/10/24 02:36:13;;;;;;;8.70;4.00;;;;;;;8.07;56.77;101139.22;1663640;84;21612;-56
2021/10/24 02:38:42;;;;;;;6.42;2.85;;;;;;;8.05;56.95;101142.85;1671788;80;21083;-57
2021/10/24 02:41:10;;;;;;;8.03;3.52;;;;;;;8.04;57.05;101144.64;1722287;81;21984;-58
2021/10/24 02:43:37;;;;;;;7.92;4.03;;;;;;;8.04;57.10;101147.26;1696674;82;21094;-56
2021/10/24 02:46:04;;;;;;;9.68;3.70;;;;;;;8.03;57.23;101150.80;1692714;82;21017;-56
2021/10/24 02:48:30;;;;;;;11.60;4.08;;;;;;;8.03;57.32;101153.42;1673245;83;21129;-55
2021/10/24 02:50:58;;;;;;;9.05;4.00;;;;;;;8.03;57.18;101157.83;1679329;83;21544;-55
2021/10/24 02:53:24;;;;;;;9.35;3.47;;;;;;;8.04;57.22;101164.77;1695524;82;21820;-57
2021/10/24 02:55:51;;;;;;;8.45;3.77;;;;;;;8.03;57.34;101173.08;1699035;82;21526;-57
2021/10/24 02:58:18;;;;;;;7.20;3.65;;;;;;;8.06;57.34;101166.36;1698480;83;21086;-57
2021/10/24 03:00:45;;;;;;;8.58;3.95;;;;;;;8.08;57.21;101165.80;1697160;82;21288;-57
2021/10/24 03:03:11;;;;;;;9.38;3.83;;;;;;;8.10;57.18;101163.95;1675504;82;21057;-56
2021/10/24 03:05:40;;;;;;;8.03;3.50;;;;;;;8.10;57.28;101163.95;1737893;80;21200;-57
2021/10/24 03:08:07;;;;;;;7.92;3.50;;;;;;;8.10;57.15;101161.34;1675066;83;21520;-57
2021/10/24 03:10:34;;;;;;;7.55;4.22;;;;;;;8.11;57.25;101163.00;1670406;82;21149;-57
2021/10/24 03:13:04;;;;;;;9.03;3.55;;;;;;;8.09;57.26;101162.73;1675340;83;21125;-55
2021/10/24 03:15:31;;;;;;;6.60;3.22;;;;;;;8.09;57.28;101173.22;1742610;80;21143;-55
2021/10/24 03:17:58;;;;;;;9.05;2.90;;;;;;;8.08;57.28;101169.73;1740612;80;21154;-56
2021/10/24 03:20:24;;;;;;;9.73;3.70;;;;;;;8.11;57.22;101171.34;1741569;80;21619;-56
2021/10/24 03:22:51;;;;;;;12.98;3.60;;;;;;;8.10;57.21;101166.58;1739553;80;21043;-56
2021/10/24 03:25:17;;;;;;;12.88;4.20;;;;;;;8.08;57.30;101163.17;1738321;80;21684;-55
2021/10/24 03:27:44;;;;;;;7.47;3.80;;;;;;;8.04;57.58;101163.46;1740914;80;21446;-56
2021/10/24 03:30:12;;;;;;;6.17;3.10;;;;;;;8.04;57.59;101160.84;1731002;80;21163;-59
2021/10/24 03:32:39;;;;;;;6.95;3.37;;;;;;;8.12;57.36;101166.02;1730808;80;21100;-56
2021/10/24 03:35:06;;;;;;;9.30;3.40;;;;;;;8.22;57.16;101161.09;1737157;80;21044;-57
2021/10/24 03:37:33;;;;;;;13.40;3.65;;;;;;;8.23;57.15;101157.52;1739966;80;21063;-56
2021/10/24 03:40:00;;;;;;;7.17;3.27;;;;;;;8.25;57.03;101162.20;1741085;80;21113;-56
2021/10/24 03:42:28;;;;;;;8.20;3.55;;;;;;;8.21;57.16;101169.88;1723506;80;22221;-56
2021/10/24 03:44:55;;;;;;;7.47;3.42;;;;;;;8.17;57.26;101169.22;1738916;80;21035;-56
2021/10/24 03:47:21;;;;;;;10.25;3.65;;;;;;;8.14;57.46;101168.55;1722666;80;21375;-56
2021/10/24 03:49:49;;;;;;;9.45;4.47;;;;;;;8.13;57.51;101169.47;1743725;80;21030;-55
2021/10/24 03:52:15;;;;;;;8.73;4.22;;;;;;;8.11;57.52;101175.28;1734438;80;21070;-56
2021/10/24 03:54:42;;;;;;;10.63;4.67;;;;;;;8.08;57.45;101174.14;1682506;82;22579;-56
2021/10/24 03:57:08;;;;;;;8.70;4.30;;;;;;;8.05;57.60;101176.92;1710113;82;21097;-56
2021/10/24 03:59:34;;;;;;;12.35;3.85;;;;;;;8.01;57.54;101178.88;1706248;82;21100;-56
2021/10/24 04:02:01;;;;;;;9.63;3.67;;;;;;;7.97;57.62;101186.08;1735125;80;21031;-56
2021/10/24 04:04:28;;;;;;;9.58;3.87;;;;;;;7.94;57.87;101181.00;1725779;81;21109;-56
2021/10/24 04:06:55;;;;;;;8.88;4.22;;;;;;;7.91;58.04;101183.78;1724123;81;21856;-56
2021/10/24 04:09:21;;;;;;;8.18;3.75;;;;;;;7.87;58.16;101184.03;1671327;83;21062;-56
2021/10/24 04:11:49;;;;;;;6.80;3.75;;;;;;;7.84;58.19;101185.07;1733915;80;21804;-56
2021/10/24 04:14:17;;;;;;;7.25;3.27;;;;;;;7.83;58.35;101187.30;1677002;83;21050;-56
2021/10/24 04:16:43;;;;;;;8.68;3.62;;;;;;;7.81;58.19;101181.30;1651274;83;21026;-56
2021/10/24 04:19:26;;;;;;;12.00;4.15;;;;;;;7.79;58.28;101183.17;1731919;80;21140;-56
2021/10/24 04:21:54;;;;;;;12.88;3.95;;;;;;;7.76;58.46;101201.20;1738045;80;21122;-56
2021/10/24 04:24:21;;;;;;;6.92;3.70;;;;;;;7.75;58.49;101190.36;1731595;80;21062;-57
2021/10/24 04:26:47;;;;;;;8.00;3.27;;;;;;;7.76;58.60;101195.12;1718326;81;20972;-54
2021/10/24 04:29:14;;;;;;;8.83;3.85;;;;;;;7.79;58.61;101197.11;1736387;80;21028;-56
2021/10/24 04:31:41;;;;;;;5.92;3.33;;;;;;;7.89;58.35;101204.00;1661327;82;21019;-55
2021/10/24 04:34:08;;;;;;;8.38;3.37;;;;;;;7.99;58.14;101198.62;1697408;82;20981;-56
2021/10/24 04:36:36;;;;;;;9.20;3.67;;;;;;;8.09;57.88;101197.64;1732424;80;20977;-55
2021/10/24 04:39:03;;;;;;;7.85;3.50;;;;;;;8.10;57.80;101191.48;1724182;80;21042;-56
2021/10/24 04:41:29;;;;;;;7.83;3.45;;;;;;;8.10;57.73;101202.41;1700091;82;21693;-55
2021/10/24 04:43:58;;;;;;;7.83;3.85;;;;;;;8.08;57.78;101211.66;1701752;82;23274;-56
2021/10/24 04:46:24;;;;;;;6.83;3.30;;;;;;;8.05;57.92;101209.22;1739886;80;21051;-56
2021/10/24 04:48:51;;;;;;;10.63;3.87;;;;;;;8.01;57.94;101211.64;1741036;80;21087;-55
2021/10/24 04:51:18;;;;;;;7.85;3.92;;;;;;;7.97;58.01;101211.45;1735900;80;21102;-56
2021/10/24 04:53:44;;;;;;;7.95;3.22;;;;;;;7.94;58.02;101211.14;1731621;80;21045;-56
2021/10/24 04:56:11;;;;;;;14.00;3.67;;;;;;;7.92;58.17;101218.25;1727760;81;21056;-57
2021/10/24 04:58:38;;;;;;;11.43;4.35;;;;;;;7.92;58.20;101222.66;1722166;82;21739;-56
2021/10/24 05:01:05;;;;;;;7.33;3.70;;;;;;;7.94;58.18;101219.47;1723177;80;21091;-58
2021/10/24 05:03:33;;;;;;;8.78;3.92;;;;;;;7.91;58.31;101224.41;1688487;82;21050;-57
2021/10/24 05:06:00;;;;;;;11.63;3.90;;;;;;;7.86;58.44;101226.44;1726144;81;21074;-56
2021/10/24 05:08:28;;;;;;;10.95;4.00;;;;;;;7.78;58.55;101227.32;1722365;82;21090;-58
2021/10/24 05:10:55;;;;;;;12.30;4.47;;;;;;;7.73;58.78;101248.55;1716017;81;21334;-57
2021/10/24 05:13:21;;;;;;;10.20;3.52;;;;;;;7.69;58.97;101237.84;1686445;82;21074;-57
2021/10/24 05:15:48;;;;;;;10.45;3.42;;;;;;;7.69;58.84;101247.02;1695120;82;21743;-55
2021/10/24 05:18:14;;;;;;;8.20;3.87;;;;;;;7.74;58.92;101246.77;1675551;82;21069;-56
2021/10/24 05:20:42;;;;;;;7.20;3.50;;;;;;;7.86;58.62;101244.78;1691776;82;21161;-58
2021/10/24 05:23:10;;;;;;;7.10;3.62;;;;;;;7.99;58.40;101248.41;1663184;84;21097;-57
2021/10/24 05:25:36;;;;;;;7.78;3.75;;;;;;;8.06;58.22;101257.27;1745183;80;21592;-57
2021/10/24 05:28:03;;;;;;;9.10;3.80;;;;;;;8.07;58.04;101263.73;1742420;80;20992;-57
2021/10/24 05:30:32;;;;;;;10.70;4.00;;;;;;;8.06;58.17;101271.67;1723533;81;21019;-56
2021/10/24 05:32:58;;;;;;;8.13;3.47;;;;;;;8.06;58.10;101273.83;1722952;81;21785;-54
2021/10/24 05:35:27;;;;;;;7.70;3.70;;;;;;;8.04;58.08;101270.92;1694089;82;21121;-56
2021/10/24 05:37:55;;;;;;;7.30;3.62;;;;;;;8.05;58.15;101281.77;1675064;83;21070;-56
2021/10/24 05:40:22;;;;;;;9.18;3.85;;;;;;;8.03;58.08;101288.41;1675275;83;21616;-56
2021/10/24 05:42:53;;;;;;;7.72;4.22;;;;;;;8.00;58.15;101285.50;1691974;82;21115;-57
2021/10/24 05:45:19;;;;;;;9.90;3.80;;;;;;;8.03;58.27;101293.64;1693161;82;21780;-56
2021/10/24 05:47:46;;;;;;;8.10;4.35;;;;;;;8.06;58.32;101301.34;1691609;82;21154;-56
2021/10/24 05:50:18;;;;;;;8.83;4.03;;;;;;;8.06;58.15;101304.44;1648827;83;21090;-58
2021/10/24 05:52:45;;;;;;;11.00;4.70;;;;;;;8.03;58.40;101301.98;1691509;82;21175;-56
2021/10/24 05:55:12;;;;;;;8.08;3.55;;;;;;;8.01;58.31;101300.75;1693701;83;21083;-57
2021/10/24 05:57:39;;;;;;;6.05;3.20;;;;;;;8.01;58.36;101312.55;1692688;82;23794;-58
2021/10/24 06:00:12;;;;;;;12.45;3.85;;;;;;;7.96;58.34;101301.47;1633888;83;21089;-56
2021/10/24 06:02:45;;;;;;;7.40;3.70;;;;;;;7.95;58.42;101309.81;1695658;82;21122;-57
2021/10/24 06:05:32;;;;;;;7.55;3.52;;;;;;;8.03;58.32;101311.16;1693183;82;21585;-58
2021/10/24 06:08:01;;;;;;;8.10;3.27;;;;;;;8.14;58.17;101312.73;1671191;83;21047;-56
2021/10/24 06:10:34;;;;;;;7.45;3.87;;;;;;;8.27;57.98;101317.69;1688745;83;21144;-57
2021/10/24 06:12:58;;;;;;;7.62;3.72;;;;;;;8.32;57.80;101330.08;1662805;84;20995;-56
2021/10/24 06:15:26;;;;;;;8.38;3.40;;;;;;;8.32;57.54;101322.65;1690919;82;21083;-58
2021/10/24 06:17:53;;;;;;;8.45;3.00;;;;;;;8.28;57.69;101327.22;1694859;82;20984;-57
2021/10/24 06:20:21;;;;;;;6.78;3.17;;;;;;;8.31;57.77;101325.75;1685221;83;21040;-57
2021/10/24 06:22:47;;;;;;;8.75;3.47;;;;;;;8.37;57.62;101328.48;1695485;83;21116;-57
2021/10/24 06:25:15;;;;;;;9.73;3.67;;;;;;;8.40;57.62;101334.87;1692566;83;21001;-57
2021/10/24 06:27:43;;;;;;;6.87;3.10;;;;;;;8.42;57.69;101338.73;1691598;82;21003;-59
2021/10/24 06:30:12;;;;;;;12.18;3.27;;;;;;;8.43;57.37;101341.77;1691702;83;21067;-58
2021/10/24 06:32:57;;;;;;;8.45;3.92;;;;;;;8.41;57.22;101340.52;1690962;82;21086;-58
2021/10/24 06:35:34;;;;;;;10.55;3.10;;;;;;;8.38;57.25;101353.31;1646501;83;22019;-56
2021/10/24 06:38:20;;;;;;;7.97;3.30;;;;;;;8.36;57.50;101352.56;1697429;82;21565;-58
2021/10/24 06:40:49;;;;;;;7.90;3.33;;;;;;;8.33;57.90;101350.58;1655785;84;21051;-57
2021/10/24 06:43:15;;;;;;;8.75;3.15;;;;;;;8.38;58.01;101355.94;1690404;83;22058;-56
2021/10/24 06:45:50;;;;;;;7.10;3.20;;;;;;;8.54;57.59;101359.91;1684541;84;21050;-57
2021/10/24 06:48:34;;;;;;;11.25;3.55;;;;;;;8.68;57.70;101353.88;1692150;82;21110;-56
2021/10/24 06:51:05;;;;;;;7.75;3.08;;;;;;;8.77;57.26;101363.00;1694332;83;21051;-55
2021/10/24 06:53:38;;;;;;;6.72;2.90;;;;;;;8.78;56.57;101364.70;1693869;82;22015;-56
2021/10/24 06:56:12;;;;;;;6.00;2.37;;;;;;;8.79;56.70;101366.38;1683163;84;21064;-57
2021/10/24 06:58:57;;;;;;;7.87;2.55;;;;;;;8.83;56.80;101377.10;1666984;82;21756;-56
2021/10/24 07:01:42;;;;;;;8.18;2.60;;;;;;;8.87;56.81;101377.30;1688489;83;21225;-56
2021/10/24 07:04:28;;;;;;;8.95;2.98;;;;;;;8.91;56.37;101379.30;1686628;82;21092;-57
2021/10/24 07:06:56;;;;;;;5.33;2.27;;;;;;;8.87;56.25;101383.86;1669225;83;21139;-57
2021/10/24 07:09:27;;;;;;;5.90;2.25;;;;;;;8.87;56.45;101373.36;1692766;82;21075;-57
2021/10/24 07:11:54;;;;;;;4.85;1.82;;;;;;;8.89;56.54;101378.08;1693655;83;22271;-57
2021/10/24 07:14:21;;;;;;;5.75;2.52;;;;;;;8.92;56.40;101386.23;1674476;83;21087;-56
2021/10/24 07:16:48;;;;;;;8.40;2.35;;;;;;;8.91;56.15;101388.02;1645570;83;21061;-57
2021/10/24 07:19:14;;;;;;;5.17;2.40;;;;;;;8.89;56.24;101383.77;1668410;83;21114;-57
2021/10/24 07:21:40;;;;;;;7.00;2.75;;;;;;;8.90;56.12;101394.19;1694682;82;21526;-55
2021/10/24 07:24:09;;;;;;;7.33;2.30;;;;;;;8.90;56.22;101397.28;1694435;83;21573;-56
2021/10/24 07:26:37;;;;;;;6.35;2.22;;;;;;;8.90;55.98;101392.87;1694930;82;22341;-56
2021/10/24 07:29:04;;;;;;;6.42;2.05;;;;;;;8.91;56.39;101393.73;1691788;83;21087;-55
2021/10/24 07:31:31;;;;;;;5.50;1.90;;;;;;;8.93;56.37;101397.95;1693407;82;21350;-55
2021/10/24 07:34:19;;;;;;;7.85;2.65;;;;;;;8.99;55.83;101398.06;1652226;84;21140;-56
2021/10/24 07:36:45;;;;;;;6.47;2.12;;;;;;;9.01;55.60;101399.28;1694604;82;21059;-56
2021/10/24 07:39:13;;;;;;;3.87;1.80;;;;;;;8.97;55.79;101400.41;1698511;82;21092;-56
2021/10/24 07:41:39;;;;;;;3.85;1.55;;;;;;;9.01;55.46;101403.22;1684566;82;21102;-55
2021/10/24 07:44:07;;;;;;;3.50;1.27;;;;;;;9.08;54.80;101410.67;1659902;83;21079;-56
2021/10/24 07:46:36;;;;;;;3.40;1.20;;;;;;;9.11;54.06;101407.88;1688701;82;21584;-56
2021/10/24 07:49:02;;;;;;;5.80;1.92;;;;;;;9.06;53.51;101416.48;1690338;82;21042;-56
2021/10/24 07:51:28;;;;;;;3.87;1.50;;;;;;;9.03;54.00;101414.51;1691356;82;21114;-57
2021/10/24 07:53:55;;;;;;;5.10;1.70;;;;;;;9.00;54.35;101414.67;1680561;83;22264;-56
2021/10/24 07:56:25;;;;;;;8.35;2.15;;;;;;;8.96;54.55;101416.63;1672914;83;21041;-56
2021/10/24 07:59:01;;;;;;;7.12;1.90;;;;;;;8.93;54.72;101416.80;1694805;82;21090;-54
2021/10/24 08:01:28;;;;;;;6.78;1.90;;;;;;;8.91;54.77;101427.39;1692928;82;21740;-55
2021/10/24 08:03:55;;;;;;;4.28;1.20;;;;;;;8.88;54.86;101430.17;1692953;82;21826;-55
2021/10/24 08:06:35;;;;;;;5.35;1.80;;;;;;;8.88;54.70;101431.49;1694105;83;21564;-54
2021/10/24 08:09:04;;;;;;;3.45;1.05;;;;;;;8.85;54.92;101432.97;1692936;82;21890;-55
2021/10/24 08:11:30;;;;;;;6.08;1.47;;;;;;;8.84;55.27;101433.92;1693413;82;21710;-55
2021/10/24 08:14:01;;;;;;;4.85;1.60;;;;;;;8.89;55.19;101429.70;1675016;83;21004;-55
2021/10/24 08:16:28;;;;;;;4.50;1.45;;;;;;;8.86;54.94;101428.55;1698447;82;21145;-54
2021/10/24 08:18:54;;;;;;;4.42;1.35;;;;;;;8.89;55.23;101438.45;1697905;82;21039;-55
2021/10/24 08:21:30;;;;;;;4.47;1.77;;;;;;;8.94;55.23;101432.91;1692536;82;21070;-55
2021/10/24 08:23:57;;;;;;;5.22;1.62;;;;;;;8.99;55.27;101446.63;1700710;83;20976;-56
2021/10/24 08:26:23;;;;;;;9.25;2.15;;;;;;;9.03;54.94;101440.76;1697162;83;21032;-57
2021/10/24 08:28:50;;;;;;;5.70;2.25;;;;;;;9.06;54.86;101441.43;1704090;82;21114;-55
2021/10/24 08:31:25;;;;;;;6.45;2.27;;;;;;;9.09;55.17;101440.39;1687773;82;21040;-57
2021/10/24 08:33:52;;;;;;;5.53;2.27;;;;;;;9.11;55.18;101441.14;1700093;83;21012;-55
2021/10/24 08:36:19;;;;;;;5.40;1.95;;;;;;;9.14;55.25;101444.91;1699429;83;20975;-55
2021/10/24 08:38:46;;;;;;;5.45;1.82;;;;;;;9.20;54.67;101445.05;1672013;83;21048;-55
2021/10/24 08:41:12;;;;;;;5.67;2.02;;;;;;;9.26;54.26;101448.61;1693342;82;21901;-55
2021/10/24 08:43:40;;;;;;;6.35;2.25;;;;;;;9.29;53.85;101461.09;1694958;82;21023;-56
2021/10/24 08:46:07;;;;;;;4.95;1.82;;;;;;;9.34;53.76;101452.12;1674601;82;21556;-55
2021/10/24 08:48:34;;;;;;;4.55;1.80;;;;;;;9.38;53.79;101448.38;1692921;82;21059;-56
2021/10/24 08:51:02;;;;;;;5.62;1.80;;;;;;;9.42;53.45;101452.53;1677964;82;21032;-56
2021/10/24 08:53:29;;;;;;;5.62;2.12;;;;;;;9.50;53.58;101454.25;1675816;83;21023;-57
2021/10/24 08:55:57;;;;;;;5.33;1.65;;;;;;;9.62;53.50;101452.20;1685056;83;21480;-56
2021/10/24 08:58:23;;;;;;;3.98;1.42;;;;;;;9.73;51.96;101450.24;1739636;80;21567;-57
2021/10/24 09:00:51;;;;;;;5.28;1.62;;;;;;;9.76;50.90;101451.38;1709328;82;21010;-56
2021/10/24 09:03:17;;;;;;;3.67;1.05;;;;;;;9.71;50.34;101458.69;1708064;81;21006;-56
2021/10/24 09:05:46;;;;;;;3.47;1.05;;;;;;;9.63;50.14;101456.98;1713286;81;21553;-57
2021/10/24 09:08:20;;;;;;;4.58;1.35;;;;;;;9.58;50.21;101466.47;1727929;81;20996;-56
2021/10/24 09:10:52;;;;;;;3.95;1.40;;;;;;;9.56;49.93;101468.32;1725170;81;20992;-56
2021/10/24 09:13:23;;;;;;;4.15;1.25;;;;;;;9.55;50.09;101471.03;1702673;82;22024;-56
2021/10/24 09:15:57;;;;;;;3.55;1.25;;;;;;;9.51;50.31;101461.17;1665814;82;21512;-56
2021/10/24 09:18:40;;;;;;;3.20;1.00;;;;;;;9.50;50.90;101462.12;1733876;80;21088;-56
2021/10/24 09:21:21;;;;;;;5.17;1.32;;;;;;;9.53;50.99;101461.09;1672653;83;21097;-55
2021/10/24 09:23:53;;;;;;;5.40;2.22;;;;;;;9.59;50.47;101462.89;1735442;80;21121;-55
2021/10/24 09:26:25;;;;;;;3.87;1.12;;;;;;;9.63;50.03;101460.92;1736878;80;22137;-56
2021/10/24 09:29:14;;;;;;;2.77;0.78;;;;;;;9.63;49.96;101460.48;1702584;81;20994;-55
2021/10/24 09:31:50;;;;;;;5.45;1.10;;;;;;;9.72;49.29;101458.25;1736528;80;21103;-56
2021/10/24 09:34:20;;;;;;;3.87;1.07;;;;;;;9.78;48.80;101465.75;1697826;82;21393;-55
2021/10/24 09:36:56;;;;;;;5.30;1.22;;;;;;;9.82;48.90;101468.11;1705205;82;20995;-56
2021/10/24 09:39:43;;;;;;;2.62;0.93;;;;;;;9.86;48.46;101464.34;1673166;83;21062;-56
2021/10/24 09:42:22;;;;;;;3.65;1.15;;;;;;;9.86;48.19;101461.72;1646360;85;21114;-56
2021/10/24 09:45:13;;;;;;;3.75;1.07;;;;;;;9.86;48.51;101465.66;1648697;84;21197;-59
2021/10/24 09:47:46;;;;;;;2.65;0.68;;;;;;;9.85;48.32;101473.19;1683499;83;21102;-55
2021/10/24 09:50:33;;;;;;;3.75;0.80;;;;;;;9.77;48.99;101491.67;1705192;82;21014;-57
2021/10/24 09:53:24;;;;;;;3.77;0.70;;;;;;;9.52;52.06;101485.69;1738175;80;21824;-57
2021/10/24 09:56:00;;;;;;;3.02;0.37;;;;;;;9.07;53.53;101500.86;1698128;82;21106;-56
2021/10/24 09:58:28;;;;;;;;;;;;;;;8.72;54.77;101500.19;1702823;82;21165;-56
2021/10/24 10:00:54;;;;;;;1.95;0.75;;;;;;;8.44;55.06;101514.80;1686366;83;20200;-56
2021/10/24 10:03:21;;;;;;;2.95;0.57;;;;;;;8.18;55.79;101522.67;1736230;80;21137;-56
2021/10/24 10:05:48;;;;;;;1.40;0.35;;;;;;;8.04;55.69;101519.46;1732831;80;21094;-57
2021/10/24 10:10:23;;;;;;;1.55;0.42;;;;;;;7.95;55.70;101510.30;1784238;78;22615;-56
2021/10/24 10:12:51;;;;;;;2.00;0.50;;;;;;;7.90;55.71;101514.06;1758450;79;21034;-56
2021/10/24 10:15:20;;;;;;;1.75;0.30;;;;;;;7.92;55.38;101524.03;1759070;79;20974;-57
2021/10/24 10:17:57;;;;;;;2.05;0.55;;;;;;;7.89;55.51;101520.25;1762113;79;20951;-57
2021/10/24 10:20:26;;;;;;;2.08;0.50;;;;;;;7.88;55.62;101521.16;1760344;79;21094;-56
2021/10/24 10:23:06;;;;;;;3.27;0.88;;;;;;;7.88;55.62;101511.52;1758357;79;21025;-57
2021/10/24 10:25:33;;;;;;;2.33;0.65;;;;;;;7.95;55.59;101519.91;1749845;79;21089;-57
2021/10/24 10:28:00;;;;;;;4.05;0.85;;;;;;;8.05;55.44;101516.37;1755472;79;21085;-57
2021/10/24 10:30:36;;;;;;;2.50;0.65;;;;;;;8.14;55.23;101523.78;1758851;79;21059;-57
2021/10/24 10:33:07;;;;;;;2.83;0.88;;;;;;;8.23;55.07;101524.59;1760928;79;21715;-56
2021/10/24 10:35:34;;;;;;;4.12;1.05;;;;;;;8.32;54.91;101526.75;1754927;79;21641;-57
2021/10/24 10:38:03;;;;;;;3.40;1.12;;;;;;;8.41;54.83;101520.64;1731989;81;21079;-56
2021/10/24 10:40:41;;;;;;;4.30;1.55;;;;;;;8.50;55.15;101526.73;1758884;79;21989;-57
2021/10/24 10:43:21;;;;;;;5.12;1.00;;;;;;;8.56;55.10;101526.42;1759648;79;21103;-56
2021/10/24 10:46:03;;;;;;;3.00;0.93;;;;;;;8.58;55.02;101525.86;1760244;79;21045;-56
2021/10/24 10:48:46;;;;;;;4.12;1.10;;;;;;;8.61;54.77;101517.83;1734379;79;21978;-56
2021/10/24 10:51:25;;;;;;;2.83;1.00;;;;;;;8.66;54.50;101524.99;1735020;79;21154;-56
2021/10/24 10:54:01;;;;;;;4.53;1.30;;;;;;;8.76;54.56;101518.79;1719464;81;21056;-55
2021/10/24 10:56:34;;;;;;;4.55;1.40;;;;;;;8.89;54.31;101526.82;1705971;82;21110;-55
2021/10/24 10:59:01;;;;;;;7.05;1.55;;;;;;;9.01;54.03;101522.67;1683216;82;21062;-55
2021/10/24 11:01:39;;;;;;;5.72;1.55;;;;;;;9.07;53.64;101528.91;1678851;82;21104;-56
2021/10/24 11:04:17;;;;;;;4.78;1.57;;;;;;;9.14;53.44;101527.63;1718578;81;21090;-56
2021/10/24 11:06:51;;;;;;;4.47;1.42;;;;;;;9.22;53.29;101527.21;1707583;83;22425;-56
2021/10/24 11:09:42;;;;;;;2.45;1.00;;;;;;;9.29;52.29;101526.77;1699539;82;21067;-56
2021/10/24 11:12:30;;;;;;;4.33;1.30;;;;;;;9.36;52.36;101523.80;1674475;82;21090;-56
2021/10/24 11:15:11;;;;;;;5.08;1.50;;;;;;;9.40;52.58;101533.22;1656094;82;21432;-56
2021/10/24 11:17:47;;;;;;;3.52;1.50;;;;;;;9.44;51.56;101528.98;1690740;82;21135;-56
2021/10/24 11:20:21;;;;;;;4.03;1.25;;;;;;;9.52;50.88;101536.45;1690546;82;22600;-57
2021/10/24 11:23:02;;;;;;;3.60;1.15;;;;;;;9.58;50.07;101534.80;1668278;84;21127;-57
2021/10/24 11:25:36;;;;;;;2.75;0.65;;;;;;;9.62;49.55;101536.30;1734284;80;21365;-58
2021/10/24 11:28:10;;;;;;;3.17;0.80;;;;;;;9.67;46.29;101522.90;1752363;80;21063;-56
2021/10/24 11:30:38;;;;;;;3.33;0.90;;;;;;;9.74;45.25;101525.54;1746116;80;21556;-56
2021/10/24 11:33:04;;;;;;;2.62;0.78;;;;;;;9.72;45.44;101530.52;1751197;80;21134;-56
2021/10/24 11:35:32;;;;;;;3.35;1.12;;;;;;;9.63;45.86;101535.81;1742428;81;20969;-56
2021/10/24 11:38:01;;;;;;;4.58;1.45;;;;;;;9.54;46.55;101544.25;1733018;81;20979;-56
2021/10/24 11:40:37;;;;;;;2.90;1.02;;;;;;;9.42;46.52;101545.31;1705618;80;20980;-57
2021/10/24 11:43:11;;;;;;;4.10;1.25;;;;;;;9.32;46.85;101545.45;1751852;80;20950;-57
2021/10/24 11:45:48;;;;;;;3.55;1.00;;;;;;;9.25;47.12;101557.25;1750342;80;21065;-57